createdAt,value
2019-06-08T00:00:38.980Z,85.10
2019-06-08T00:03:05.949Z,85.00
2019-06-08T00:05:32.908Z,84.90
2019-06-08T00:07:59.884Z,84.30
2019-06-08T00:10:26.852Z,84.30
2019-06-08T00:12:53.772Z,84.10
2019-06-08T00:19:02.025Z,83.80
2019-06-08T00:21:29.019Z,85.40
2019-06-08T00:23:56.011Z,83.40
2019-06-08T00:26:24.240Z,83.30
2019-06-08T00:28:51.752Z,83.30
2019-06-08T00:31:19.958Z,83.20
2019-06-08T00:33:47.373Z,83.20
2019-06-08T00:36:14.756Z,83.30
2019-06-08T00:38:42.096Z,83.40
2019-06-08T00:41:09.105Z,83.20
2019-06-08T00:43:36.201Z,83.50
2019-06-08T00:46:03.237Z,83.50
2019-06-08T00:48:30.195Z,83.60
2019-06-08T00:50:57.209Z,83.70
2019-06-08T00:53:25.425Z,83.90
2019-06-08T00:55:52.520Z,83.90
2019-06-08T00:58:20.385Z,83.80
2019-06-08T01:00:49.027Z,83.90
2019-06-08T01:03:17.598Z,83.60
2019-06-08T01:05:45.110Z,83.70
2019-06-08T01:08:12.313Z,83.60
2019-06-08T01:17:29.331Z,86.50
2019-06-08T01:19:56.364Z,86.40
2019-06-08T01:22:23.669Z,83.80
2019-06-08T01:24:50.834Z,83.80
2019-06-08T01:27:17.926Z,83.90
2019-06-08T01:29:44.959Z,84.10
2019-06-08T01:32:12.035Z,84.20
2019-06-08T01:34:39.151Z,84.10
2019-06-08T01:37:06.352Z,84.30
2019-06-08T01:39:34.465Z,84.40
2019-06-08T01:42:01.516Z,84.50
2019-06-08T01:44:29.914Z,84.70
2019-06-08T01:46:57.388Z,84.70
2019-06-08T01:49:26.204Z,84.60
2019-06-08T01:51:53.522Z,84.60
2019-06-08T01:54:20.635Z,84.10
2019-06-08T01:56:47.611Z,84.30
2019-06-08T01:59:14.624Z,84.30
2019-06-08T02:01:41.609Z,84.50
2019-06-08T02:04:08.674Z,84.40
2019-06-08T02:06:35.705Z,84.50
2019-06-08T02:09:06.186Z,84.70
2019-06-08T02:11:33.306Z,85.90
2019-06-08T02:14:01.030Z,85.00
2019-06-08T02:19:10.449Z,85.60
2019-06-08T02:21:37.433Z,85.40
2019-06-08T02:24:04.430Z,85.50
2019-06-08T02:26:32.168Z,86.20
2019-06-08T02:29:00.130Z,85.60
2019-06-08T02:31:27.986Z,85.80
2019-06-08T02:33:55.032Z,85.90
2019-06-08T02:36:21.989Z,86.00
2019-06-08T02:38:48.945Z,86.00
2019-06-08T02:41:15.928Z,86.10
2019-06-08T02:43:42.898Z,86.10
2019-06-08T02:46:09.898Z,85.90
2019-06-08T02:48:56.291Z,85.70
2019-06-08T02:51:06.103Z,85.70
2019-06-08T02:53:34.139Z,86.30
2019-06-08T02:56:14.953Z,86.00
2019-06-08T02:58:42.738Z,86.20
2019-06-08T03:01:09.728Z,85.60
2019-06-08T03:03:38.363Z,86.00
2019-06-08T03:06:05.935Z,85.50
2019-06-08T03:08:36.282Z,85.00
2019-06-08T03:11:04.831Z,85.20
2019-06-08T03:13:33.574Z,84.90
2019-06-08T03:16:02.238Z,85.00
2019-06-08T03:18:29.292Z,84.60
2019-06-08T03:20:56.229Z,84.40
2019-06-08T03:23:23.209Z,84.20
2019-06-08T03:25:52.731Z,84.10
2019-06-08T03:28:18.950Z,84.20
2019-06-08T03:30:53.836Z,84.20
2019-06-08T03:33:14.638Z,83.70
2019-06-08T03:35:52.661Z,83.60
2019-06-08T03:38:11.748Z,82.60
2019-06-08T03:40:40.429Z,82.80
2019-06-08T03:43:07.692Z,82.80
2019-06-08T03:45:36.221Z,82.30
2019-06-08T03:48:03.702Z,82.10
2019-06-08T03:50:30.653Z,81.90
2019-06-08T03:52:57.626Z,81.60
2019-06-08T03:55:24.587Z,81.80
2019-06-08T03:58:11.268Z,80.90
2019-06-08T04:00:38.332Z,81.80
2019-06-08T04:03:05.294Z,81.40
2019-06-08T04:05:32.251Z,80.70
2019-06-08T04:08:00.288Z,80.20
2019-06-08T04:10:42.082Z,79.70
2019-06-08T04:13:11.798Z,79.40
2019-06-08T04:15:40.405Z,78.30
2019-06-08T04:18:07.909Z,78.00
2019-06-08T04:20:34.878Z,77.70
2019-06-08T04:23:01.811Z,77.20
2019-06-08T04:25:28.776Z,76.70
2019-06-08T04:27:55.720Z,76.60
2019-06-08T04:30:22.803Z,76.90
2019-06-08T04:32:49.796Z,75.80
2019-06-08T04:35:16.807Z,76.00
2019-06-08T04:37:44.864Z,75.70
2019-06-08T04:40:14.456Z,73.90
2019-06-08T04:42:42.339Z,74.50
2019-06-08T04:45:10.278Z,74.10
2019-06-08T04:47:38.385Z,72.90
2019-06-08T04:50:21.687Z,72.80
2019-06-08T04:52:34.948Z,72.70
2019-06-08T04:55:05.088Z,72.80
2019-06-08T04:57:32.052Z,72.90
2019-06-08T04:59:58.994Z,72.60
2019-06-08T05:02:25.962Z,72.40
2019-06-08T05:04:53.167Z,71.90
2019-06-08T05:07:20.108Z,72.10
2019-06-08T05:09:49.321Z,72.00
2019-06-08T05:12:16.872Z,72.00
2019-06-08T05:14:45.092Z,72.30
2019-06-08T05:17:12.105Z,74.20
2019-06-08T05:19:39.279Z,72.00
2019-06-08T05:22:06.397Z,72.20
2019-06-08T05:24:33.361Z,72.60
2019-06-08T05:27:00.295Z,73.00
2019-06-08T05:29:27.301Z,72.50
2019-06-08T05:31:55.358Z,72.80
2019-06-08T05:34:22.316Z,72.40
2019-06-08T05:36:50.035Z,72.30
2019-06-08T05:39:17.354Z,73.40
2019-06-08T05:41:45.470Z,71.60
2019-06-08T05:44:12.711Z,71.60
2019-06-08T05:46:39.940Z,71.30
2019-06-08T05:49:06.876Z,68.70
2019-06-08T05:51:33.822Z,69.50
2019-06-08T05:54:02.974Z,69.70
2019-06-08T05:56:29.556Z,69.50
2019-06-08T05:58:56.512Z,66.30
2019-06-08T06:01:23.436Z,67.60
2019-06-08T06:03:51.764Z,67.80
2019-06-08T06:06:18.943Z,66.60
2019-06-08T06:08:46.610Z,66.00
2019-06-08T06:11:13.669Z,61.60
2019-06-08T06:13:40.658Z,62.00
2019-06-08T06:16:07.588Z,60.10
2019-06-08T06:18:34.523Z,60.20
2019-06-08T06:21:11.149Z,60.20
2019-06-08T06:23:30.235Z,58.90
2019-06-08T06:25:57.188Z,59.40
2019-06-08T06:28:24.669Z,58.90
2019-06-08T06:30:52.225Z,58.10
2019-06-08T06:33:19.587Z,57.30
2019-06-08T06:35:47.802Z,57.50
2019-06-08T06:38:14.809Z,57.40
2019-06-08T06:40:41.926Z,58.00
2019-06-08T06:43:08.944Z,57.20
2019-06-08T06:45:35.924Z,57.90
2019-06-08T06:48:02.975Z,57.50
2019-06-08T06:50:29.935Z,57.40
2019-06-08T06:52:57.261Z,56.40
2019-06-08T06:55:25.448Z,56.90
2019-06-08T06:57:53.562Z,56.50
2019-06-08T07:00:32.307Z,55.90
2019-06-08T07:02:59.968Z,55.80
2019-06-08T07:05:27.621Z,55.40
2019-06-08T07:07:54.676Z,54.50
2019-06-08T07:10:21.615Z,54.20
2019-06-08T07:12:48.703Z,55.70
2019-06-08T07:15:19.226Z,53.60
2019-06-08T07:17:46.200Z,56.10
2019-06-08T07:20:13.338Z,53.40
2019-06-08T07:22:40.301Z,55.10
2019-06-08T07:25:07.381Z,55.60
2019-06-08T07:27:34.439Z,56.30
2019-06-08T07:30:01.406Z,55.60
2019-06-08T07:32:28.377Z,55.50
2019-06-08T07:34:55.994Z,54.60
2019-06-08T07:37:22.957Z,54.10
2019-06-08T07:39:50.121Z,55.10
2019-06-08T07:42:18.663Z,54.10
2019-06-08T07:44:46.763Z,54.90
2019-06-08T07:47:14.064Z,54.30
2019-06-08T07:49:41.016Z,53.70
2019-06-08T07:52:10.627Z,54.00
2019-06-08T07:54:36.754Z,51.80
2019-06-08T07:57:03.696Z,47.30
2019-06-08T07:59:30.733Z,51.80
2019-06-08T08:01:58.482Z,55.90
2019-06-08T08:04:25.446Z,52.40
2019-06-08T08:06:52.541Z,52.10
2019-06-08T08:09:19.555Z,53.50
2019-06-08T08:11:46.489Z,52.10
2019-06-08T08:14:13.451Z,51.70
2019-06-08T08:16:40.397Z,55.30
2019-06-08T08:19:07.420Z,54.50
2019-06-08T08:21:34.340Z,53.40
2019-06-08T08:24:01.807Z,51.90
2019-06-08T08:26:31.297Z,52.60
2019-06-08T08:29:02.530Z,50.90
2019-06-08T08:31:27.851Z,51.10
2019-06-08T08:34:03.057Z,52.40
2019-06-08T08:36:28.869Z,49.10
2019-06-08T08:38:56.651Z,49.80
2019-06-08T08:41:24.579Z,51.30
2019-06-08T08:43:53.303Z,51.10
2019-06-08T08:46:20.287Z,47.50
2019-06-08T08:48:48.636Z,49.60
2019-06-08T08:51:17.990Z,49.30
2019-06-08T08:53:44.623Z,48.20
2019-06-08T08:56:11.605Z,46.90
2019-06-08T08:58:38.565Z,48.20
2019-06-08T09:01:07.991Z,49.50
2019-06-08T09:03:34.278Z,46.20
2019-06-08T09:06:03.688Z,46.20
2019-06-08T09:08:30.116Z,48.10
2019-06-08T09:10:59.595Z,46.80
2019-06-08T09:13:28.129Z,47.70
2019-06-08T09:15:55.761Z,47.40
2019-06-08T09:18:23.481Z,47.40
2019-06-08T09:20:52.371Z,47.60
2019-06-08T09:23:28.055Z,48.10
2019-06-08T09:26:00.423Z,47.50
2019-06-08T09:28:28.363Z,48.10
2019-06-08T09:30:56.162Z,48.90
2019-06-08T09:33:23.325Z,47.00
2019-06-08T09:35:50.280Z,47.00
2019-06-08T09:38:18.636Z,47.80
2019-06-08T09:40:48.743Z,48.70
2019-06-08T09:43:14.749Z,47.40
2019-06-08T09:45:41.791Z,45.30
2019-06-08T09:48:09.437Z,46.80
2019-06-08T09:50:38.532Z,47.80
2019-06-08T09:53:22.053Z,46.20
2019-06-08T09:55:34.223Z,46.50
2019-06-08T09:58:05.112Z,45.90
2019-06-08T10:00:30.094Z,46.90
2019-06-08T10:03:01.314Z,45.60
2019-06-08T10:05:27.583Z,44.90
2019-06-08T10:07:54.616Z,47.40
2019-06-08T10:10:21.594Z,44.90
2019-06-08T10:12:48.642Z,45.40
2019-06-08T10:15:17.877Z,45.40
2019-06-08T10:17:47.436Z,43.60
2019-06-08T10:20:14.970Z,46.10
2019-06-08T10:22:41.894Z,47.80
2019-06-08T10:25:11.212Z,45.80
2019-06-08T10:27:38.656Z,47.40
2019-06-08T10:30:09.879Z,45.40
2019-06-08T10:32:58.507Z,46.90
2019-06-08T10:35:28.222Z,47.40
2019-06-08T10:37:55.737Z,45.40
2019-06-08T10:40:23.572Z,46.40
2019-06-08T10:42:50.537Z,47.00
2019-06-08T10:45:18.560Z,47.30
2019-06-08T10:47:47.776Z,45.00
2019-06-08T10:50:15.513Z,46.50
2019-06-08T10:52:43.060Z,44.70
2019-06-08T10:55:12.078Z,44.30
2019-06-08T10:57:38.805Z,45.30
2019-06-08T11:00:18.018Z,46.90
2019-06-08T11:02:40.626Z,49.20
2019-06-08T11:05:11.698Z,47.40
2019-06-08T11:07:35.009Z,47.20
2019-06-08T11:10:03.662Z,47.10
2019-06-08T11:12:32.016Z,46.70
2019-06-08T11:14:59.914Z,47.50
2019-06-08T11:17:27.982Z,49.20
2019-06-08T11:19:55.260Z,49.00
2019-06-08T11:22:22.257Z,55.20
2019-06-08T11:24:49.196Z,48.80
2019-06-08T11:27:18.615Z,48.20
2019-06-08T11:29:47.634Z,47.40
2019-06-08T11:32:13.688Z,47.40
2019-06-08T11:34:40.670Z,48.20
2019-06-08T11:37:11.867Z,49.00
2019-06-08T11:39:38.242Z,48.70
2019-06-08T11:42:08.735Z,49.70
2019-06-08T11:44:34.165Z,48.90
2019-06-08T11:47:02.397Z,47.30
2019-06-08T11:49:29.665Z,48.90
2019-06-08T11:51:58.334Z,50.00
2019-06-08T11:54:36.142Z,49.00
2019-06-08T11:56:57.394Z,51.50
2019-06-08T11:59:24.239Z,48.30
2019-06-08T12:01:51.211Z,49.80
2019-06-08T12:04:18.516Z,49.00
2019-06-08T12:06:45.519Z,48.60
2019-06-08T12:09:13.916Z,47.10
2019-06-08T12:11:41.088Z,48.10
2019-06-08T12:14:09.725Z,48.40
2019-06-08T12:16:37.796Z,46.90
2019-06-08T12:19:06.816Z,47.80
2019-06-08T12:21:33.908Z,46.80
2019-06-08T12:24:00.870Z,47.20
2019-06-08T12:26:27.823Z,46.30
2019-06-08T12:28:57.968Z,44.40
2019-06-08T12:31:24.698Z,55.00
2019-06-08T12:33:51.717Z,46.30
2019-06-08T12:36:20.704Z,44.50
2019-06-08T12:38:48.675Z,42.00
2019-06-08T12:41:16.047Z,43.70
2019-06-08T12:43:43.140Z,44.10
2019-06-08T12:46:11.634Z,42.90
2019-06-08T12:48:39.098Z,45.00
2019-06-08T12:52:10.119Z,51.40
2019-06-08T12:54:37.499Z,45.60
2019-06-08T12:57:04.532Z,47.40
2019-06-08T12:59:31.794Z,46.40
2019-06-08T13:01:58.816Z,48.30
2019-06-08T13:04:25.786Z,47.40
2019-06-08T13:06:53.464Z,46.30
2019-06-08T13:09:20.693Z,45.20
2019-06-08T13:11:50.421Z,43.70
2019-06-08T13:14:20.379Z,46.80
2019-06-08T13:16:48.632Z,53.80
2019-06-08T13:19:17.378Z,46.40
2019-06-08T13:21:45.005Z,53.10
2019-06-08T13:24:13.073Z,52.70
2019-06-08T13:26:40.507Z,46.00
2019-06-08T13:29:09.243Z,54.90
2019-06-08T13:31:37.924Z,46.60
2019-06-08T13:34:05.209Z,47.00
2019-06-08T13:36:32.226Z,45.10
2019-06-08T13:38:59.285Z,43.80
2019-06-08T13:41:29.083Z,45.40
2019-06-08T13:43:55.126Z,44.90
2019-06-08T13:46:23.599Z,46.10
2019-06-08T13:48:50.912Z,46.10
2019-06-08T13:51:20.735Z,53.40
2019-06-08T13:53:47.880Z,45.00
2019-06-08T13:56:17.916Z,53.00
2019-06-08T13:58:44.536Z,44.50
2019-06-08T14:01:11.497Z,45.70
2019-06-08T14:03:49.774Z,45.80
2019-06-08T14:06:24.990Z,47.10
2019-06-08T14:08:59.242Z,46.20
2019-06-08T14:11:31.000Z,47.90
2019-06-08T14:14:09.671Z,49.00
2019-06-08T14:16:50.454Z,46.80
2019-06-08T14:19:32.300Z,46.70
2019-06-08T14:22:28.482Z,47.60
2019-06-08T14:25:10.625Z,47.30
2019-06-08T14:27:58.906Z,50.40
2019-06-08T14:30:40.686Z,49.70
2019-06-08T14:33:23.668Z,48.70
2019-06-08T14:35:59.119Z,48.50
2019-06-08T14:38:41.030Z,48.50
2019-06-08T14:41:09.214Z,47.70
2019-06-08T14:43:38.191Z,45.40
2019-06-08T14:46:12.023Z,45.80
2019-06-08T14:48:45.760Z,46.70
2019-06-08T14:51:22.314Z,44.70
2019-06-08T14:53:50.395Z,43.10
2019-06-08T14:56:19.440Z,44.50
2019-06-08T14:58:48.322Z,46.80
2019-06-08T15:01:19.283Z,45.70
2019-06-08T15:03:43.764Z,46.10
2019-06-08T15:06:11.844Z,48.20
2019-06-08T15:08:39.322Z,48.60
2019-06-08T15:11:08.307Z,50.70
2019-06-08T15:13:37.364Z,52.20
2019-06-08T15:16:04.116Z,52.10
2019-06-08T15:18:32.085Z,51.80
2019-06-08T15:20:59.045Z,51.70
2019-06-08T15:23:28.956Z,51.90
2019-06-08T15:25:55.282Z,50.50
2019-06-08T15:28:22.612Z,52.10
2019-06-08T15:30:49.816Z,52.90
2019-06-08T15:33:18.113Z,52.20
2019-06-08T15:35:47.535Z,52.50
2019-06-08T15:38:14.618Z,56.10
2019-06-08T15:40:41.561Z,53.00
2019-06-08T15:43:08.800Z,53.70
2019-06-08T15:45:37.080Z,54.00
2019-06-08T15:48:04.030Z,55.20
2019-06-08T15:50:30.967Z,54.10
2019-06-08T15:53:00.033Z,55.30
2019-06-08T15:55:29.005Z,54.70
2019-06-08T15:57:55.449Z,54.20
2019-06-08T16:00:23.081Z,54.50
2019-06-08T16:02:50.530Z,54.50
2019-06-08T16:05:17.485Z,55.40
2019-06-08T16:07:44.433Z,54.90
2019-06-08T16:10:12.613Z,55.70
2019-06-08T16:12:39.633Z,54.80
2019-06-08T16:15:06.860Z,56.30
2019-06-08T16:17:33.836Z,55.50
2019-06-08T16:20:01.071Z,56.90
2019-06-08T16:22:28.041Z,57.20
2019-06-08T16:24:55.683Z,56.90
2019-06-08T16:27:22.672Z,57.30
2019-06-08T16:29:49.629Z,57.10
2019-06-08T16:32:16.588Z,57.80
2019-06-08T16:34:43.556Z,58.10
2019-06-08T16:37:10.534Z,58.70
2019-06-08T16:39:37.488Z,58.40
2019-06-08T16:42:04.438Z,59.00
2019-06-08T16:44:32.217Z,58.60
2019-06-08T16:46:59.367Z,59.00
2019-06-08T16:49:27.112Z,59.30
2019-06-08T16:51:55.345Z,58.10
2019-06-08T16:54:22.297Z,58.70
2019-06-08T16:56:49.932Z,59.10
2019-06-08T16:59:17.663Z,59.90
2019-06-08T17:01:44.829Z,60.70
2019-06-08T17:04:11.784Z,62.40
2019-06-08T17:06:39.478Z,63.50
2019-06-08T17:09:07.803Z,63.90
2019-06-08T17:11:34.760Z,64.90
2019-06-08T17:14:01.704Z,65.50
2019-06-08T17:16:29.890Z,65.80
2019-06-08T17:18:57.237Z,66.20
2019-06-08T17:21:24.184Z,66.60
2019-06-08T17:23:51.161Z,67.40
2019-06-08T17:26:18.123Z,67.70
2019-06-08T17:28:45.056Z,67.70
2019-06-08T17:31:12.011Z,69.10
2019-06-08T17:33:41.419Z,69.00
2019-06-08T17:36:08.606Z,69.30
2019-06-08T17:38:35.575Z,69.30
2019-06-08T17:41:02.572Z,69.70
2019-06-08T17:43:29.580Z,70.20
2019-06-08T17:45:57.150Z,71.10
2019-06-08T17:48:24.143Z,72.10
2019-06-08T17:50:51.100Z,71.60
2019-06-08T17:53:18.099Z,71.80
2019-06-08T17:55:45.024Z,72.70
2019-06-08T17:58:12.036Z,73.00
2019-06-08T18:00:39.509Z,72.90
2019-06-08T18:03:08.358Z,71.80
2019-06-08T18:05:36.716Z,72.60
2019-06-08T18:08:04.384Z,72.60
2019-06-08T18:10:32.148Z,72.80
2019-06-08T18:12:59.153Z,74.40
2019-06-08T18:15:28.398Z,73.30
2019-06-08T18:17:57.564Z,73.10
2019-06-08T18:20:24.183Z,73.00
2019-06-08T18:22:51.177Z,74.40
2019-06-08T18:25:18.223Z,74.30
2019-06-08T18:28:05.456Z,73.80
2019-06-08T18:30:18.962Z,74.00
2019-06-08T18:32:48.369Z,74.90
2019-06-08T18:35:14.984Z,73.90
2019-06-08T18:37:42.866Z,73.40
2019-06-08T18:40:13.781Z,74.10
2019-06-08T18:42:42.393Z,75.10
2019-06-08T18:45:10.753Z,73.10
2019-06-08T18:47:39.338Z,73.60
2019-06-08T18:50:08.813Z,72.90
2019-06-08T18:52:39.872Z,72.90
2019-06-08T18:55:08.353Z,76.00
2019-06-08T18:57:38.497Z,74.80
2019-06-08T19:00:10.980Z,73.90
2019-06-08T19:02:39.947Z,75.20
2019-06-08T19:05:08.260Z,74.10
2019-06-08T19:07:35.048Z,74.00
2019-06-08T19:10:04.019Z,75.20
2019-06-08T19:12:30.962Z,75.40
2019-06-08T19:14:58.635Z,76.40
2019-06-08T19:17:28.266Z,74.30
2019-06-08T19:19:58.019Z,74.20
2019-06-08T19:22:27.944Z,74.60
2019-06-08T19:24:54.151Z,74.40
2019-06-08T19:27:21.136Z,74.40
2019-06-08T19:29:51.420Z,74.10
2019-06-08T19:34:54.424Z,74.10
2019-06-08T19:37:18.716Z,74.30
2019-06-08T19:39:47.854Z,74.00
2019-06-08T19:42:17.411Z,74.10
2019-06-08T19:44:54.095Z,74.60
2019-06-08T19:47:17.601Z,75.20
2019-06-08T19:49:54.725Z,76.00
2019-06-08T19:52:26.156Z,74.80
2019-06-08T19:54:58.143Z,74.90
2019-06-08T19:57:29.695Z,75.30
2019-06-08T20:00:00.373Z,76.20
2019-06-08T20:02:30.517Z,76.40
2019-06-08T20:05:00.330Z,76.30
2019-06-08T20:07:40.765Z,76.70
2019-06-08T20:10:13.988Z,76.20
2019-06-08T20:12:47.962Z,76.30
2019-06-08T20:15:18.613Z,75.70
2019-06-08T20:20:22.114Z,75.60
2019-06-08T20:22:51.801Z,79.90
2019-06-08T20:25:19.941Z,75.90
2019-06-08T20:27:50.353Z,75.50
2019-06-08T20:30:17.784Z,75.10
2019-06-08T20:32:49.507Z,76.00
2019-06-08T20:35:17.448Z,75.90
2019-06-08T20:37:45.650Z,75.80
2019-06-08T20:40:14.205Z,76.20
2019-06-08T20:42:42.277Z,75.90
2019-06-08T20:45:12.427Z,76.50
2019-06-08T20:47:42.054Z,75.80
2019-06-08T20:50:11.914Z,76.50
2019-06-08T20:52:49.272Z,75.60
2019-06-08T20:55:18.934Z,76.30
2019-06-08T20:57:50.916Z,76.80
2019-06-08T21:00:23.815Z,76.20
2019-06-08T21:03:02.747Z,77.40
2019-06-08T21:05:27.849Z,77.70
2019-06-08T21:07:58.702Z,77.00
2019-06-08T21:10:24.592Z,76.70
2019-06-08T21:12:52.974Z,77.10
2019-06-08T21:15:20.556Z,76.70
2019-06-08T21:17:49.464Z,76.90
2019-06-08T21:20:17.712Z,76.70
2019-06-08T21:22:46.816Z,77.00
2019-06-08T21:25:13.917Z,76.90
2019-06-08T21:27:40.895Z,76.90
2019-06-08T21:30:20.233Z,77.20
2019-06-08T21:32:38.025Z,78.00
2019-06-08T21:35:07.634Z,78.40
2019-06-08T21:37:37.536Z,79.60
2019-06-08T21:40:08.321Z,79.50
2019-06-08T21:42:36.974Z,82.40
2019-06-08T21:45:09.182Z,80.20
2019-06-08T21:47:35.007Z,81.40
2019-06-08T21:50:04.060Z,81.20
2019-06-08T21:52:31.008Z,82.90
2019-06-08T21:54:59.309Z,82.20
2019-06-08T21:57:27.745Z,82.70
2019-06-08T22:00:16.307Z,83.10
2019-06-08T22:02:24.304Z,83.00
2019-06-08T22:04:53.792Z,83.30
2019-06-08T22:07:20.232Z,83.30
2019-06-08T22:09:47.983Z,83.20
2019-06-08T22:12:17.263Z,83.30
2019-06-08T22:14:43.828Z,83.50
2019-06-08T22:20:11.748Z,83.90
2019-06-08T22:22:38.691Z,86.40
2019-06-08T22:25:09.189Z,84.40
2019-06-08T22:27:48.309Z,85.00
2019-06-08T22:30:32.384Z,84.50
2019-06-08T22:32:49.435Z,84.80
2019-06-08T22:35:22.158Z,84.90
2019-06-08T22:37:55.091Z,87.10
2019-06-08T22:40:27.881Z,87.10
2019-06-08T22:43:00.863Z,86.00
2019-06-08T22:45:33.115Z,86.20
2019-06-08T22:48:03.737Z,90.50
2019-06-08T22:50:33.739Z,90.60
2019-06-08T22:53:07.921Z,90.20
2019-06-08T22:55:40.821Z,91.20
2019-06-08T22:58:13.014Z,90.60
2019-06-08T23:00:52.061Z,88.60
2019-06-08T23:03:33.527Z,88.80
2019-06-08T23:06:04.430Z,90.30
2019-06-08T23:08:34.154Z,88.90
2019-06-08T23:11:03.547Z,88.80
2019-06-08T23:13:30.425Z,89.00
2019-06-08T23:19:17.410Z,88.70
2019-06-08T23:21:44.654Z,89.80
2019-06-08T23:24:11.990Z,88.90
2019-06-08T23:26:38.906Z,88.80
2019-06-08T23:29:07.797Z,89.20
2019-06-08T23:31:34.609Z,89.80
2019-06-08T23:34:03.943Z,90.00
2019-06-08T23:36:46.767Z,90.00
2019-06-08T23:38:59.132Z,90.00
2019-06-08T23:41:27.259Z,90.00
2019-06-08T23:43:54.405Z,89.90
2019-06-08T23:46:21.281Z,89.10
2019-06-08T23:48:48.621Z,89.80
2019-06-08T23:51:17.913Z,89.70
2019-06-08T23:53:47.822Z,88.90
2019-06-08T23:56:15.123Z,89.20
2019-06-08T23:58:43.336Z,89.60
